Time;durP1;ratioP1;P1;durP2;ratioP2;P2;SDS_P1;SDS_P2;PMS_P1;PMS_P2;Temp;Humidity;BMP_temperature;BMP_pressure;BME280_temperature;BME280_humidity;BME280_pressure;Samples;Min_cycle;Max_cycle;Signal;HPM_P1;HPM_P2
2022/10/05 00:01:25;;;;;;;9.50;6.03;;;17.50;99.90;;;;;;4591699;19;20036;-32
2022/10/05 00:02:57;;;;;;;11.30;6.90;;;17.50;99.90;;;;;;4592862;19;20070;-34
2022/10/05 00:04:28;;;;;;;9.73;6.70;;;17.50;99.90;;;;;;4593196;19;20352;-35
2022/10/05 00:05:59;;;;;;;9.40;6.20;;;17.50;99.90;;;;;;4592765;19;20062;-33
2022/10/05 00:07:30;;;;;;;9.82;6.45;;;17.50;99.90;;;;;;4592083;19;20433;-40
2022/10/05 00:09:01;;;;;;;11.85;6.82;;;17.50;99.90;;;;;;4592751;19;20023;-36
2022/10/05 00:10:32;;;;;;;10.40;7.18;;;17.50;99.90;;;;;;4591739;19;20011;-32
2022/10/05 00:12:17;;;;;;;10.20;6.65;;;17.50;99.90;;;;;;4592458;19;20477;-32
2022/10/05 00:13:48;;;;;;;9.68;6.35;;;17.50;99.90;;;;;;4591768;19;20015;-36
2022/10/05 00:15:19;;;;;;;9.68;5.88;;;17.50;99.90;;;;;;4592335;19;20034;-32
2022/10/05 00:16:50;;;;;;;9.75;6.00;;;17.50;99.90;;;;;;4591682;19;20407;-33
2022/10/05 00:18:21;;;;;;;10.95;6.60;;;17.50;99.90;;;;;;4592176;19;20018;-37
2022/10/05 00:19:52;;;;;;;8.98;5.82;;;17.50;99.90;;;;;;4592651;19;20066;-33
2022/10/05 00:21:26;;;;;;;7.20;5.32;;;17.50;99.90;;;;;;4590707;19;20082;-35
2022/10/05 00:22:59;;;;;;;10.10;5.95;;;17.50;99.90;;;;;;4590375;19;20019;-32
2022/10/05 00:24:30;;;;;;;9.77;6.30;;;17.50;99.90;;;;;;4592119;19;20015;-35
2022/10/05 00:26:25;;;;;;;9.40;5.65;;;17.50;99.90;;;;;;4593150;19;20014;-34
2022/10/05 00:27:58;;;;;;;11.07;6.05;;;17.50;99.90;;;;;;4591390;19;20014;-34
2022/10/05 00:29:29;;;;;;;7.93;5.40;;;17.50;99.90;;;;;;4591331;19;20026;-37
2022/10/05 00:31:00;;;;;;;8.60;5.68;;;17.50;99.90;;;;;;4591118;19;20014;-33
2022/10/05 00:32:31;;;;;;;8.73;6.07;;;17.50;99.90;;;;;;4592096;19;20010;-32
2022/10/05 00:34:02;;;;;;;9.05;5.55;;;17.50;99.90;;;;;;4592507;19;20039;-33
2022/10/05 00:35:34;;;;;;;9.23;5.85;;;17.50;99.90;;;;;;4592620;19;20034;-33
2022/10/05 00:37:05;;;;;;;10.73;6.25;;;17.50;99.90;;;;;;4592046;19;20626;-37
2022/10/05 00:38:36;;;;;;;8.43;6.20;;;17.50;99.90;;;;;;4592537;19;20007;-39
2022/10/05 00:40:18;;;;;;;9.52;6.43;;;17.50;99.90;;;;;;4591453;19;20014;-36
2022/10/05 00:42:18;;;;;;;9.75;6.50;;;17.50;99.90;;;;;;4590283;19;20007;-33
2022/10/05 00:44:10;;;;;;;10.75;6.70;;;17.50;99.90;;;;;;4591640;19;20040;-32
2022/10/05 00:46:13;;;;;;;9.50;6.30;;;17.50;99.90;;;;;;4590903;19;20337;-34
2022/10/05 00:47:56;;;;;;;;;;;17.50;99.90;;;;;;4592740;19;20464;-34
2022/10/05 00:49:46;;;;;;;10.75;6.35;;;17.50;99.90;;;;;;4592008;19;19910;-33
2022/10/05 00:51:28;;;;;;;7.85;5.70;;;17.50;99.90;;;;;;4592491;19;20011;-33
2022/10/05 00:53:17;;;;;;;11.05;7.00;;;17.50;99.90;;;;;;4591769;19;20405;-37
2022/10/05 00:55:02;;;;;;;8.13;6.28;;;17.50;99.90;;;;;;4591673;19;20382;-35
2022/10/05 00:56:59;;;;;;;8.98;7.18;;;17.50;99.90;;;;;;4590621;19;20035;-35
2022/10/05 00:58:36;;;;;;;8.98;6.43;;;17.50;99.90;;;;;;4591073;19;20014;-39
2022/10/05 01:00:16;;;;;;;8.88;6.13;;;17.50;99.90;;;;;;4590702;19;20011;-34
2022/10/05 01:01:50;;;;;;;9.02;6.05;;;17.50;99.90;;;;;;4589385;19;20022;-41
2022/10/05 01:03:31;;;;;;;11.20;6.80;;;17.50;99.90;;;;;;4591622;19;20015;-32
2022/10/05 01:05:08;;;;;;;9.43;6.20;;;17.50;99.90;;;;;;4590551;19;20018;-38
2022/10/05 01:07:13;;;;;;;12.35;7.50;;;17.50;99.90;;;;;;4590861;19;19998;-36
2022/10/05 01:09:01;;;;;;;8.10;6.60;;;17.50;99.90;;;;;;4592367;19;20047;-33
2022/10/05 01:10:45;;;;;;;9.77;7.40;;;17.50;99.90;;;;;;4590229;19;20007;-37
2022/10/05 01:12:24;;;;;;;10.85;6.35;;;17.50;99.90;;;;;;4591284;19;20010;-33
2022/10/05 01:14:31;;;;;;;9.50;6.55;;;17.50;99.90;;;;;;4591311;19;20011;-34
2022/10/05 01:16:17;;;;;;;10.35;7.07;;;17.50;99.90;;;;;;4590519;19;20019;-34
2022/10/05 01:18:13;;;;;;;10.98;7.15;;;17.50;99.90;;;;;;4591299;19;20365;-32
2022/10/05 01:20:05;;;;;;;11.05;6.55;;;17.50;99.90;;;;;;4589303;19;20073;-42
2022/10/05 01:21:42;;;;;;;10.30;7.55;;;17.40;99.90;;;;;;4588719;19;20007;-32
2022/10/05 01:23:41;;;;;;;11.68;7.40;;;17.50;99.90;;;;;;4588207;19;20014;-33
2022/10/05 01:25:24;;;;;;;9.93;7.10;;;17.50;99.90;;;;;;4589043;19;20007;-33
2022/10/05 01:27:01;;;;;;;11.27;7.50;;;17.50;99.90;;;;;;4589130;19;20011;-32
2022/10/05 01:28:40;;;;;;;11.50;8.45;;;17.50;99.90;;;;;;4589723;19;20066;-37
2022/10/05 01:30:18;;;;;;;10.35;7.57;;;17.50;99.90;;;;;;4588757;19;20373;-34
2022/10/05 01:31:56;;;;;;;11.07;8.68;;;17.50;99.90;;;;;;4589004;19;20010;-33
2022/10/05 01:33:33;;;;;;;12.88;8.30;;;17.40;99.90;;;;;;4589121;19;20483;-33
2022/10/05 01:35:16;;;;;;;11.45;7.53;;;17.40;99.90;;;;;;4588996;19;20044;-34
2022/10/05 01:36:49;;;;;;;10.88;7.47;;;17.50;99.90;;;;;;4588988;19;20011;-38
2022/10/05 01:38:39;;;;;;;11.05;7.05;;;17.50;99.90;;;;;;4589214;19;20020;-38
2022/10/05 01:40:14;;;;;;;11.38;8.15;;;17.50;99.90;;;;;;4589105;19;20011;-34
2022/10/05 01:41:51;;;;;;;12.15;8.05;;;17.50;99.90;;;;;;4587778;19;20038;-37
2022/10/05 01:43:59;;;;;;;11.98;7.63;;;17.50;99.90;;;;;;4588770;19;20078;-35
2022/10/05 01:45:33;;;;;;;12.57;8.77;;;17.50;99.90;;;;;;4588564;19;20025;-32
2022/10/05 01:47:19;;;;;;;12.75;8.15;;;17.50;99.90;;;;;;4588607;19;20014;-34
2022/10/05 01:49:12;;;;;;;12.80;8.75;;;17.50;99.90;;;;;;4588812;19;20032;-33
2022/10/05 01:50:58;;;;;;;;;;;17.40;99.90;;;;;;4588302;19;20469;-39
2022/10/05 01:52:41;;;;;;;13.20;8.63;;;17.50;99.90;;;;;;4589370;19;19918;-33
2022/10/05 01:54:18;;;;;;;12.95;8.00;;;17.50;99.90;;;;;;4588449;19;20010;-36
2022/10/05 01:55:58;;;;;;;10.85;8.30;;;17.50;99.90;;;;;;4588599;19;20006;-40
2022/10/05 01:58:05;;;;;;;13.02;8.30;;;17.50;99.90;;;;;;4588991;19;20018;-36
2022/10/05 01:59:55;;;;;;;12.32;8.57;;;17.40;99.90;;;;;;4590732;19;20014;-36
2022/10/05 02:01:35;;;;;;;10.07;8.25;;;17.50;99.90;;;;;;4589250;19;19994;-33
2022/10/05 02:03:18;;;;;;;11.25;7.90;;;17.50;99.90;;;;;;4589360;19;20404;-35
2022/10/05 02:04:50;;;;;;;13.32;9.05;;;17.40;99.90;;;;;;4590109;19;20035;-38
2022/10/05 02:06:25;;;;;;;;;;;17.40;99.90;;;;;;4591353;19;20392;-34
2022/10/05 02:07:59;;;;;;;15.07;8.32;;;17.40;99.90;;;;;;4589341;19;20523;-36
2022/10/05 02:09:38;;;;;;;12.38;8.63;;;17.50;99.90;;;;;;4589360;19;20050;-36
2022/10/05 02:11:11;;;;;;;13.77;8.93;;;17.40;99.90;;;;;;4589546;19;20476;-37
2022/10/05 02:12:42;;;;;;;11.55;8.23;;;17.40;99.90;;;;;;4590067;19;20019;-34
2022/10/05 02:14:17;;;;;;;15.18;8.90;;;17.40;99.90;;;;;;4589823;19;20010;-38
2022/10/05 02:15:53;;;;;;;12.38;8.13;;;17.40;99.90;;;;;;4589611;19;20007;-39
2022/10/05 02:17:30;;;;;;;12.73;8.55;;;17.50;99.90;;;;;;4589183;19;20026;-38
2022/10/05 02:19:14;;;;;;;13.80;8.70;;;17.40;99.90;;;;;;4589164;19;20011;-38
2022/10/05 02:20:45;;;;;;;12.45;8.55;;;17.40;99.90;;;;;;4588562;19;20019;-34
2022/10/05 02:22:29;;;;;;;14.32;9.27;;;17.40;99.90;;;;;;4587425;19;20448;-37
2022/10/05 02:24:04;;;;;;;9.98;7.90;;;17.40;99.90;;;;;;4589321;19;20460;-34
2022/10/05 02:25:36;;;;;;;10.90;8.30;;;17.50;99.90;;;;;;4588992;19;20014;-35
2022/10/05 02:27:07;;;;;;;14.02;9.30;;;17.40;99.90;;;;;;4587612;19;20010;-32
2022/10/05 02:28:41;;;;;;;12.88;8.75;;;17.40;99.90;;;;;;4588049;19;20114;-36
2022/10/05 02:30:12;;;;;;;11.18;7.82;;;17.50;99.90;;;;;;4588407;19;20015;-39
2022/10/05 02:32:09;;;;;;;12.15;8.48;;;17.50;99.90;;;;;;4587817;19;20015;-38
2022/10/05 02:33:40;;;;;;;11.52;8.30;;;17.50;99.90;;;;;;4587902;19;20019;-34
2022/10/05 02:35:13;;;;;;;10.48;7.57;;;17.40;99.90;;;;;;4587815;19;20098;-32
2022/10/05 02:36:44;;;;;;;13.40;7.43;;;17.50;99.90;;;;;;4588114;19;20090;-34
2022/10/05 02:38:29;;;;;;;14.82;8.32;;;17.40;99.90;;;;;;4587783;19;20010;-37
2022/10/05 02:40:18;;;;;;;13.20;7.68;;;17.50;99.90;;;;;;4587628;19;20519;-35
2022/10/05 02:42:15;;;;;;;13.80;8.75;;;17.40;99.90;;;;;;4586731;19;20010;-36
2022/10/05 02:43:52;;;;;;;10.90;8.48;;;17.50;99.90;;;;;;4587595;19;20117;-34
2022/10/05 02:45:59;;;;;;;11.85;8.52;;;17.40;99.90;;;;;;4588179;19;20515;-33
2022/10/05 02:47:42;;;;;;;17.98;8.85;;;17.40;99.90;;;;;;4587908;19;20021;-35
2022/10/05 02:49:29;;;;;;;12.43;9.15;;;17.40;99.90;;;;;;4587509;19;20359;-36
2022/10/05 02:51:08;;;;;;;12.40;8.73;;;17.40;99.90;;;;;;4588415;19;20021;-33
2022/10/05 02:52:44;;;;;;;13.13;9.30;;;17.40;99.90;;;;;;4587354;19;20018;-36
2022/10/05 02:54:33;;;;;;;13.02;8.48;;;17.40;99.90;;;;;;4587745;19;20011;-35
2022/10/05 02:56:32;;;;;;;11.75;7.88;;;17.40;99.90;;;;;;4587801;19;20011;-35
2022/10/05 02:58:26;;;;;;;12.82;8.23;;;17.40;99.90;;;;;;4587852;19;20011;-34
2022/10/05 03:00:03;;;;;;;12.68;8.30;;;17.40;99.90;;;;;;4588640;19;20010;-32
2022/10/05 03:01:49;;;;;;;13.50;8.95;;;17.40;99.90;;;;;;4588547;19;20022;-33
2022/10/05 03:03:26;;;;;;;12.60;8.45;;;17.40;99.90;;;;;;4590388;19;20010;-35
2022/10/05 03:05:03;;;;;;;11.85;8.45;;;17.50;99.90;;;;;;4593684;19;20371;-35
2022/10/05 03:06:39;;;;;;;11.23;8.10;;;17.40;99.90;;;;;;4594400;19;20027;-32
2022/10/05 03:08:35;;;;;;;12.50;8.43;;;17.40;99.90;;;;;;4592867;19;20025;-36
2022/10/05 03:10:18;;;;;;;12.80;8.57;;;17.40;99.90;;;;;;4593147;19;20003;-38
2022/10/05 03:12:06;;;;;;;;;;;17.50;99.90;;;;;;4593790;19;20014;-36
2022/10/05 03:13:47;;;;;;;12.20;7.97;;;17.40;99.90;;;;;;4593838;19;20249;-38
2022/10/05 03:15:48;;;;;;;13.05;8.77;;;17.40;99.90;;;;;;4594172;19;20014;-31
2022/10/05 03:17:21;;;;;;;12.02;8.48;;;17.40;99.90;;;;;;4591547;19;20006;-36
2022/10/05 03:19:02;;;;;;;11.98;8.23;;;17.40;99.90;;;;;;4591400;19;20011;-38
2022/10/05 03:20:42;;;;;;;12.38;8.07;;;17.40;99.90;;;;;;4590919;19;20118;-40
2022/10/05 03:22:42;;;;;;;11.32;8.10;;;17.40;99.90;;;;;;4591664;19;20010;-35
2022/10/05 03:24:33;;;;;;;12.77;7.85;;;17.40;99.90;;;;;;4591497;19;20011;-37
2022/10/05 03:26:07;;;;;;;10.30;8.18;;;17.40;99.90;;;;;;4591293;19;20484;-36
2022/10/05 03:27:48;;;;;;;11.40;8.25;;;17.40;99.90;;;;;;4591584;19;20014;-32
2022/10/05 03:29:44;;;;;;;10.95;7.80;;;17.40;99.90;;;;;;4592614;19;20010;-34
2022/10/05 03:31:29;;;;;;;12.13;9.02;;;17.40;99.90;;;;;;4591611;19;20010;-32
2022/10/05 03:33:26;;;;;;;13.88;8.73;;;17.40;99.90;;;;;;4591346;19;20116;-37
2022/10/05 03:35:25;;;;;;;11.05;8.57;;;17.40;99.90;;;;;;4591496;19;20002;-36
2022/10/05 03:37:04;;;;;;;11.15;8.52;;;17.40;99.90;;;;;;4591678;19;20023;-34
2022/10/05 03:38:47;;;;;;;11.05;8.30;;;17.40;99.90;;;;;;4591065;19;20469;-34
2022/10/05 03:40:27;;;;;;;12.63;8.20;;;17.40;99.90;;;;;;4591159;19;20025;-34
2022/10/05 03:42:06;;;;;;;11.90;8.10;;;17.40;99.90;;;;;;4589765;19;20018;-33
2022/10/05 03:43:56;;;;;;;10.68;8.40;;;17.40;99.90;;;;;;4591005;19;20443;-31
2022/10/05 03:45:39;;;;;;;12.10;8.80;;;17.40;99.90;;;;;;4591785;19;20022;-39
2022/10/05 03:47:33;;;;;;;13.93;10.10;;;17.40;99.90;;;;;;4591959;19;20509;-34
2022/10/05 03:49:16;;;;;;;10.82;8.48;;;17.40;99.90;;;;;;4590767;19;19994;-31
2022/10/05 03:51:15;;;;;;;9.30;7.97;;;17.40;99.90;;;;;;4591107;19;20493;-33
2022/10/05 03:53:01;;;;;;;12.98;9.05;;;17.40;99.90;;;;;;4590741;19;20018;-33
2022/10/05 03:54:54;;;;;;;12.55;8.55;;;17.40;99.90;;;;;;4591043;19;20096;-36
2022/10/05 03:56:37;;;;;;;13.20;8.80;;;17.40;99.90;;;;;;4590666;19;20472;-33
2022/10/05 03:58:37;;;;;;;9.90;8.40;;;17.40;99.90;;;;;;4590870;19;20341;-33
2022/10/05 04:00:16;;;;;;;15.02;8.77;;;17.40;99.90;;;;;;4590580;19;20014;-36
2022/10/05 04:01:55;;;;;;;11.38;8.73;;;17.40;99.90;;;;;;4589633;19;20006;-35
2022/10/05 04:03:34;;;;;;;13.18;9.52;;;17.40;99.90;;;;;;4590620;19;20030;-33
2022/10/05 04:05:08;;;;;;;11.27;8.32;;;17.40;99.90;;;;;;4590756;19;20045;-37
2022/10/05 04:06:46;;;;;;;11.85;8.90;;;17.40;99.90;;;;;;4590417;19;20486;-33
2022/10/05 04:08:38;;;;;;;12.32;9.07;;;17.40;99.90;;;;;;4590626;19;20374;-33
2022/10/05 04:10:16;;;;;;;;;;;17.40;99.90;;;;;;4592160;19;20013;-38
2022/10/05 04:11:50;;;;;;;12.73;9.73;;;17.50;99.90;;;;;;4590601;19;20414;-33
2022/10/05 04:13:53;;;;;;;12.65;8.55;;;17.50;99.90;;;;;;4590520;19;20128;-37
2022/10/05 04:15:45;;;;;;;12.30;8.35;;;17.60;99.90;;;;;;4590743;19;20018;-37
2022/10/05 04:17:38;;;;;;;14.10;9.25;;;17.70;99.90;;;;;;4590526;19;20042;-37
2022/10/05 04:19:22;;;;;;;12.65;9.05;;;17.80;99.90;;;;;;4590266;19;20015;-37
2022/10/05 04:20:57;;;;;;;12.63;9.02;;;17.80;99.90;;;;;;4588596;19;20505;-36
2022/10/05 04:22:35;;;;;;;12.93;9.00;;;17.80;99.90;;;;;;4589966;19;20070;-35
2022/10/05 04:24:25;;;;;;;12.98;8.85;;;17.90;99.90;;;;;;4589876;19;20048;-35
2022/10/05 04:26:00;;;;;;;11.02;8.52;;;18.00;99.90;;;;;;4590495;19;20026;-36
2022/10/05 04:27:39;;;;;;;11.38;8.35;;;18.00;99.90;;;;;;4590304;19;20017;-38
2022/10/05 04:29:16;;;;;;;12.10;8.85;;;18.00;99.90;;;;;;4591202;19;20014;-34
2022/10/05 04:30:48;;;;;;;12.88;8.73;;;18.00;99.90;;;;;;4590215;19;20031;-36
2022/10/05 04:32:42;;;;;;;12.38;9.00;;;18.00;99.90;;;;;;4589885;19;20123;-33
2022/10/05 04:34:53;;;;;;;11.07;7.93;;;17.90;99.90;;;;;;4589683;19;20346;-33
2022/10/05 04:36:28;;;;;;;11.80;8.73;;;18.00;99.90;;;;;;4589590;19;20473;-33
2022/10/05 04:38:11;;;;;;;11.10;8.18;;;18.00;99.90;;;;;;4590021;19;20024;-35
2022/10/05 04:40:02;;;;;;;11.75;8.43;;;18.00;99.90;;;;;;4589816;19;20362;-34
2022/10/05 04:41:52;;;;;;;11.38;8.45;;;18.00;99.90;;;;;;4589289;19;20035;-39
2022/10/05 04:43:32;;;;;;;10.52;8.55;;;18.00;99.90;;;;;;4590035;19;20491;-35
2022/10/05 04:45:12;;;;;;;10.27;9.18;;;18.00;99.90;;;;;;4590866;19;20014;-34
2022/10/05 04:46:53;;;;;;;11.68;9.65;;;16.80;99.90;;;;;;4591448;19;20029;-36
2022/10/05 04:48:45;;;;;;;11.68;9.90;;;15.40;99.90;;;;;;4591529;19;20044;-38
2022/10/05 04:50:53;;;;;;;12.73;9.73;;;14.80;99.90;;;;;;4591703;19;20562;-35
2022/10/05 04:52:37;;;;;;;12.97;10.10;;;14.50;99.90;;;;;;4589841;19;20017;-34
2022/10/05 04:54:51;;;;;;;12.00;9.73;;;14.40;99.90;;;;;;4589570;19;20416;-37
2022/10/05 04:56:39;;;;;;;10.93;9.10;;;14.40;99.90;;;;;;4589243;19;20394;-35
2022/10/05 04:58:32;;;;;;;12.43;9.57;;;14.30;99.90;;;;;;4589575;19;20002;-40
2022/10/05 05:00:04;;;;;;;12.43;9.90;;;14.30;99.90;;;;;;4588809;19;20014;-33
2022/10/05 05:01:44;;;;;;;11.50;10.02;;;14.30;99.90;;;;;;4588601;19;20033;-37
2022/10/05 05:03:24;;;;;;;14.07;10.57;;;14.20;99.90;;;;;;4590376;19;20010;-34
2022/10/05 05:05:04;;;;;;;12.60;9.93;;;14.20;99.90;;;;;;4588308;19;20516;-33
2022/10/05 05:06:50;;;;;;;12.20;9.47;;;14.20;99.90;;;;;;4590136;19;20022;-36
2022/10/05 05:08:40;;;;;;;11.63;9.60;;;14.20;99.90;;;;;;4589823;19;20015;-35
2022/10/05 05:10:47;;;;;;;11.17;9.27;;;14.20;99.90;;;;;;4589733;19;20369;-34
2022/10/05 05:12:20;;;;;;;13.27;10.10;;;14.20;99.90;;;;;;4588710;19;20044;-32
2022/10/05 05:14:11;;;;;;;11.97;9.20;;;14.20;99.90;;;;;;4589773;19;20017;-37
2022/10/05 05:16:18;;;;;;;12.80;9.02;;;14.20;99.90;;;;;;4587543;19;20513;-34
2022/10/05 05:18:13;;;;;;;11.20;9.17;;;14.20;99.90;;;;;;4587756;19;20113;-37
2022/10/05 05:19:55;;;;;;;11.43;9.30;;;14.20;99.90;;;;;;4588095;19;20038;-33
2022/10/05 05:21:43;;;;;;;10.73;8.93;;;14.20;99.90;;;;;;4588108;19;20006;-36
2022/10/05 05:23:51;;;;;;;10.23;8.97;;;14.10;99.90;;;;;;4587185;19;20116;-34
2022/10/05 05:25:42;;;;;;;10.43;9.07;;;14.10;99.90;;;;;;4588171;19;20025;-36
2022/10/05 05:27:21;;;;;;;11.27;9.40;;;14.20;99.90;;;;;;4588761;19;20010;-33
2022/10/05 05:29:30;;;;;;;11.20;8.83;;;14.10;99.90;;;;;;4588425;19;20018;-34
2022/10/05 05:31:22;;;;;;;11.97;9.20;;;14.20;99.90;;;;;;4588855;19;20025;-35
2022/10/05 05:33:26;;;;;;;11.70;9.70;;;14.20;99.90;;;;;;4588519;19;20015;-38
2022/10/05 05:35:08;;;;;;;12.07;9.07;;;14.20;99.90;;;;;;4588494;19;20039;-38
2022/10/05 05:36:48;;;;;;;11.05;9.07;;;14.20;99.90;;;;;;4588721;19;20007;-36
2022/10/05 05:38:27;;;;;;;13.43;10.00;;;14.20;99.90;;;;;;4588595;19;20014;-35
2022/10/05 05:40:13;;;;;;;14.33;11.67;;;14.20;99.90;;;;;;4588338;19;20357;-36
2022/10/05 05:42:06;;;;;;;12.80;10.23;;;14.10;99.90;;;;;;4588083;19;20018;-32
2022/10/05 05:43:58;;;;;;;15.07;12.03;;;14.20;99.90;;;;;;4588521;19;20014;-37
2022/10/05 05:45:40;;;;;;;13.10;11.10;;;14.20;99.90;;;;;;4588347;19;20084;-37
2022/10/05 05:47:14;;;;;;;11.18;9.40;;;14.10;99.90;;;;;;4588517;19;20037;-35
2022/10/05 05:48:46;;;;;;;11.93;9.77;;;14.10;99.90;;;;;;4588373;19;20473;-34
2022/10/05 05:50:53;;;;;;;10.63;8.93;;;14.20;99.90;;;;;;4588452;19;20097;-34
2022/10/05 05:52:28;;;;;;;11.20;9.80;;;14.10;99.90;;;;;;4587918;19;20007;-37
2022/10/05 05:54:14;;;;;;;13.07;10.27;;;14.10;99.90;;;;;;4586180;19;20091;-36
2022/10/05 05:55:47;;;;;;;12.17;9.40;;;14.10;99.90;;;;;;4588423;19;20108;-36
2022/10/05 05:57:31;;;;;;;14.10;10.50;;;14.10;99.90;;;;;;4588631;19;20015;-34
2022/10/05 05:59:10;;;;;;;11.70;9.70;;;14.10;99.90;;;;;;4588463;19;20380;-33
2022/10/05 06:00:48;;;;;;;18.90;13.70;;;14.10;99.90;;;;;;4588551;19;20019;-32
2022/10/05 06:02:22;;;;;;;16.97;12.73;;;14.10;99.90;;;;;;4588559;19;20025;-36
2022/10/05 06:03:56;;;;;;;12.73;10.37;;;14.10;99.90;;;;;;4589631;19;20034;-33
2022/10/05 06:05:39;;;;;;;10.30;9.20;;;14.10;99.90;;;;;;4589492;19;20029;-34
2022/10/05 06:07:14;;;;;;;12.20;9.77;;;14.10;99.90;;;;;;4590688;19;20028;-37
2022/10/05 06:08:46;;;;;;;13.00;9.73;;;14.10;99.90;;;;;;4589748;19;19999;-36
2022/10/05 06:10:20;;;;;;;11.60;9.30;;;14.10;99.90;;;;;;4589005;19;20010;-35
2022/10/05 06:11:57;;;;;;;11.20;9.20;;;14.10;99.90;;;;;;4590122;19;20007;-34
2022/10/05 06:13:32;;;;;;;11.93;9.47;;;14.10;99.90;;;;;;4589631;19;20070;-40
2022/10/05 06:15:17;;;;;;;10.70;8.73;;;14.10;99.90;;;;;;4589044;19;20362;-37
2022/10/05 06:17:04;;;;;;;9.90;8.63;;;14.00;99.90;;;;;;4589232;19;20074;-34
2022/10/05 06:18:37;;;;;;;11.23;9.17;;;14.00;99.90;;;;;;4590334;19;20019;-37
2022/10/05 06:20:37;;;;;;;11.00;8.50;;;14.00;99.90;;;;;;4588657;19;20014;-36
2022/10/05 06:22:24;;;;;;;10.03;8.77;;;14.00;99.90;;;;;;4586974;19;20015;-36
2022/10/05 06:24:00;;;;;;;12.23;8.87;;;14.10;99.90;;;;;;4587712;19;20018;-35
2022/10/05 06:25:37;;;;;;;11.07;8.90;;;14.10;99.90;;;;;;4587837;19;20022;-35
2022/10/05 06:27:46;;;;;;;10.50;8.37;;;14.10;99.90;;;;;;4587970;19;20018;-34
2022/10/05 06:29:19;;;;;;;11.07;9.37;;;14.20;99.90;;;;;;4588342;19;20063;-36
2022/10/05 06:31:08;;;;;;;11.47;9.07;;;14.20;99.90;;;;;;4588019;19;20022;-33
2022/10/05 06:33:06;;;;;;;9.17;8.13;;;14.20;99.90;;;;;;4587674;19;20398;-37
2022/10/05 06:35:13;;;;;;;11.53;8.37;;;14.20;99.90;;;;;;4587935;19;20113;-33
2022/10/05 06:36:58;;;;;;;11.27;8.30;;;14.20;99.90;;;;;;4588150;19;20017;-32
2022/10/05 06:38:50;;;;;;;10.27;8.73;;;14.30;99.90;;;;;;4592470;19;20081;-34
2022/10/05 06:40:24;;;;;;;11.57;7.53;;;14.30;99.90;;;;;;4588988;19;20018;-36
2022/10/05 06:42:07;;;;;;;11.70;9.23;;;14.30;99.90;;;;;;4587430;19;20011;-40
2022/10/05 06:43:53;;;;;;;11.10;8.67;;;14.30;99.90;;;;;;4588792;19;20038;-39
2022/10/05 06:45:36;;;;;;;11.10;8.33;;;14.30;99.90;;;;;;4589535;19;20019;-36
2022/10/05 06:47:25;;;;;;;10.53;8.67;;;14.30;99.90;;;;;;4589156;19;20018;-36
2022/10/05 06:49:14;;;;;;;9.90;8.23;;;14.30;99.90;;;;;;4591505;19;20476;-37
2022/10/05 06:50:48;;;;;;;9.77;8.17;;;14.40;99.90;;;;;;4592347;19;20021;-35
2022/10/05 06:52:51;;;;;;;10.17;8.43;;;14.40;99.90;;;;;;4591962;19;20519;-40
2022/10/05 06:54:41;;;;;;;9.57;8.23;;;14.40;99.90;;;;;;4591884;19;20039;-36
2022/10/05 06:56:49;;;;;;;10.27;8.47;;;14.40;99.90;;;;;;4592037;19;20118;-33
2022/10/05 06:58:30;;;;;;;10.67;8.80;;;14.40;99.90;;;;;;4591458;19;20014;-40
2022/10/05 07:00:23;;;;;;;9.70;8.52;;;14.50;99.90;;;;;;4591857;19;20017;-35
2022/10/05 07:02:26;;;;;;;10.90;8.70;;;14.50;99.90;;;;;;4590575;19;20017;-40
2022/10/05 07:04:13;;;;;;;9.67;7.40;;;14.50;99.90;;;;;;4591756;19;20015;-36
2022/10/05 07:06:05;;;;;;;9.83;7.50;;;14.60;99.90;;;;;;4591737;19;20027;-39
2022/10/05 07:07:59;;;;;;;10.27;7.60;;;14.60;99.90;;;;;;4591568;19;20014;-36
2022/10/05 07:09:50;;;;;;;9.63;7.97;;;14.60;99.90;;;;;;4592033;19;20039;-33
2022/10/05 07:11:41;;;;;;;9.60;7.47;;;14.70;99.90;;;;;;4592024;19;20015;-35
2022/10/05 07:13:35;;;;;;;8.60;7.13;;;14.70;99.90;;;;;;4591610;19;20335;-35
2022/10/05 07:15:06;;;;;;;9.93;7.33;;;14.70;99.90;;;;;;4591275;19;20015;-35
2022/10/05 07:16:55;;;;;;;10.65;7.38;;;14.80;99.90;;;;;;4591312;19;20007;-33
2022/10/05 07:18:33;;;;;;;8.80;7.07;;;14.80;99.90;;;;;;4591837;19;20015;-39
2022/10/05 07:20:38;;;;;;;8.53;6.60;;;14.80;99.90;;;;;;4590879;19;20163;-37
2022/10/05 07:22:49;;;;;;;8.97;7.60;;;14.80;99.90;;;;;;4612302;19;20738;-40
2022/10/05 07:24:33;;;;;;;9.03;7.53;;;14.80;99.90;;;;;;4613374;19;20014;-36
2022/10/05 07:26:26;;;;;;;15.27;7.27;;;14.90;99.90;;;;;;4613202;19;20317;-40
2022/10/05 07:28:16;;;;;;;8.63;7.10;;;14.90;99.90;;;;;;4611623;19;20069;-41
2022/10/05 07:30:09;;;;;;;8.00;6.60;;;14.90;99.90;;;;;;4612238;19;20026;-36
2022/10/05 07:31:55;;;;;;;8.57;6.82;;;15.00;99.90;;;;;;4611210;19;20018;-36
2022/10/05 07:33:47;;;;;;;9.33;6.67;;;15.00;99.90;;;;;;4610948;19;20011;-34
2022/10/05 07:37:56;;;;;;;8.40;6.60;;;15.00;99.90;;;;;;4611405;19;20460;-39
2022/10/05 07:39:37;;;;;;;;;;;15.10;99.90;;;;;;4611897;19;20048;-36
2022/10/05 07:41:14;;;;;;;8.03;5.83;;;15.10;99.90;;;;;;4610469;19;20387;-39
2022/10/05 07:43:09;;;;;;;7.47;6.30;;;15.10;99.90;;;;;;4611128;19;20474;-36
2022/10/05 07:44:47;;;;;;;8.07;6.00;;;15.20;99.90;;;;;;4611878;19;20328;-32
2022/10/05 07:46:24;;;;;;;7.60;6.38;;;15.20;99.90;;;;;;4610850;19;20010;-34
2022/10/05 07:47:56;;;;;;;8.02;5.65;;;15.20;99.90;;;;;;4610820;19;20502;-32
2022/10/05 07:49:47;;;;;;;8.40;6.13;;;15.20;99.90;;;;;;4610810;19;20503;-38
2022/10/05 07:51:33;;;;;;;6.43;5.70;;;15.20;99.90;;;;;;4610517;19;20003;-37
2022/10/05 07:53:12;;;;;;;7.50;6.20;;;15.20;99.90;;;;;;4610679;19;20516;-37
2022/10/05 07:54:44;;;;;;;8.53;6.00;;;15.20;99.90;;;;;;4610659;19;20010;-37
2022/10/05 07:56:21;;;;;;;7.40;6.40;;;15.30;99.90;;;;;;4610796;19;20019;-40
2022/10/05 07:58:03;;;;;;;7.72;5.90;;;15.30;99.90;;;;;;4610351;19;20018;-38
2022/10/05 07:59:55;;;;;;;7.05;5.53;;;15.30;99.90;;;;;;4610349;19;20018;-35
2022/10/05 08:01:34;;;;;;;7.20;5.65;;;15.30;99.90;;;;;;4609812;19;20015;-34
2022/10/05 08:03:24;;;;;;;6.03;5.13;;;15.30;99.90;;;;;;4610368;19;20093;-35
2022/10/05 08:05:02;;;;;;;10.13;5.57;;;15.30;99.90;;;;;;4610583;19;20082;-34
2022/10/05 08:06:39;;;;;;;6.85;5.15;;;15.30;99.90;;;;;;4611812;19;20093;-36
2022/10/05 08:08:10;;;;;;;7.72;5.90;;;15.30;99.90;;;;;;4612162;19;20021;-38
2022/10/05 08:10:02;;;;;;;7.30;5.88;;;15.30;99.90;;;;;;4612974;19;20007;-37
2022/10/05 08:11:39;;;;;;;9.95;6.15;;;15.30;99.90;;;;;;4612847;19;20006;-37
2022/10/05 08:13:18;;;;;;;7.20;5.30;;;15.40;99.90;;;;;;4611201;19;20010;-36
2022/10/05 08:15:14;;;;;;;8.90;6.05;;;15.40;99.90;;;;;;4611159;19;20021;-37
2022/10/05 08:16:46;;;;;;;6.38;5.07;;;15.40;99.90;;;;;;4611378;19;20038;-37
2022/10/05 08:18:33;;;;;;;7.43;5.57;;;15.40;99.90;;;;;;4611766;19;20041;-39
2022/10/05 08:20:27;;;;;;;8.73;6.22;;;15.40;99.90;;;;;;4612105;19;20010;-39
2022/10/05 08:22:08;;;;;;;6.50;4.93;;;15.50;99.90;;;;;;4611272;19;20041;-34
2022/10/05 08:23:49;;;;;;;6.38;5.40;;;15.50;99.90;;;;;;4609534;19;20025;-37
2022/10/05 08:25:22;;;;;;;;;;;15.50;99.90;;;;;;4613237;19;20010;-36
2022/10/05 08:27:28;;;;;;;7.78;5.80;;;15.50;99.90;;;;;;4612322;19;20245;-41
2022/10/05 08:29:03;;;;;;;7.38;5.13;;;15.50;99.90;;;;;;4609987;19;20015;-34
2022/10/05 08:31:09;;;;;;;8.10;5.50;;;15.50;99.90;;;;;;4612102;19;20541;-36
2022/10/05 08:32:46;;;;;;;5.65;4.68;;;15.50;99.90;;;;;;4605099;19;20010;-38
2022/10/05 08:34:41;;;;;;;7.32;5.55;;;15.50;99.90;;;;;;4591661;19;20006;-38
2022/10/05 08:36:13;;;;;;;7.63;5.82;;;15.50;99.90;;;;;;4592034;19;20486;-43
2022/10/05 08:37:44;;;;;;;6.22;4.95;;;15.50;99.90;;;;;;4592074;19;20015;-34
2022/10/05 08:39:17;;;;;;;7.97;5.28;;;15.50;99.90;;;;;;4592223;19;20034;-39
2022/10/05 08:41:26;;;;;;;6.13;4.80;;;15.50;99.90;;;;;;4591739;19;20007;-32
2022/10/05 08:43:00;;;;;;;5.90;4.55;;;15.60;99.90;;;;;;4591965;19;20101;-36
2022/10/05 08:45:08;;;;;;;9.63;6.55;;;15.60;99.90;;;;;;4591592;19;20011;-36
2022/10/05 08:47:17;;;;;;;9.35;6.57;;;15.60;99.90;;;;;;4591616;19;20376;-35
2022/10/05 08:49:00;;;;;;;7.63;5.78;;;15.60;99.90;;;;;;4591456;19;20531;-37
2022/10/05 08:51:08;;;;;;;7.93;5.82;;;15.70;99.90;;;;;;4591271;19;20014;-35
2022/10/05 08:52:58;;;;;;;6.75;5.40;;;15.70;99.90;;;;;;4591643;19;20014;-38
2022/10/05 08:54:47;;;;;;;5.63;4.72;;;15.70;99.90;;;;;;4591466;19;20357;-35
2022/10/05 08:56:48;;;;;;;6.80;4.95;;;15.80;99.90;;;;;;4591246;19;20319;-36
2022/10/05 08:58:51;;;;;;;7.15;5.22;;;15.80;99.90;;;;;;4591188;19;20363;-40
2022/10/05 09:00:22;;;;;;;9.07;5.90;;;15.80;99.90;;;;;;4591669;19;20097;-40
2022/10/05 09:02:08;;;;;;;8.93;6.68;;;15.80;99.90;;;;;;4591086;19;20036;-40